Time;durP1;ratioP1;P1;durP2;ratioP2;P2;SDS_P1;SDS_P2;PMS_P1;PMS_P2;Temp;Humidity;BMP_temperature;BMP_pressure;BME280_temperature;BME280_humidity;BME280_pressure;Samples;Min_cycle;Max_cycle;Signal;HPM_P1;HPM_P2
2021/09/17 00:00:10;;;;;;;34.05;19.92;;;15.40;99.90;;;;;;5067520;28;20048;-84
2021/09/17 00:02:41;;;;;;;36.60;21.25;;;15.40;99.90;;;;;;5069075;28;20041;-81
2021/09/17 00:05:11;;;;;;;34.33;19.80;;;15.30;99.90;;;;;;5051471;28;20059;-80
2021/09/17 00:07:41;;;;;;;36.20;21.67;;;15.20;99.90;;;;;;5068243;28;20059;-81
2021/09/17 00:10:12;;;;;;;36.03;23.33;;;15.20;99.90;;;;;;5036587;28;20056;-82
2021/09/17 00:12:42;;;;;;;44.25;25.33;;;15.10;99.90;;;;;;5063540;28;20064;-82
2021/09/17 00:15:13;;;;;;;40.10;25.07;;;15.10;99.90;;;;;;5053181;28;20049;-80
2021/09/17 00:17:43;;;;;;;42.67;24.25;;;15.00;99.90;;;;;;5087163;28;20040;-81
2021/09/17 00:20:15;;;;;;;37.50;21.23;;;14.90;99.90;;;;;;5087048;28;20547;-81
2021/09/17 00:22:46;;;;;;;42.35;24.15;;;14.90;99.90;;;;;;5069328;28;20051;-80
2021/09/17 00:25:14;;;;;;;37.22;21.38;;;14.90;99.90;;;;;;5085717;28;20052;-82
2021/09/17 00:27:46;;;;;;;39.45;23.85;;;14.80;99.90;;;;;;5086923;28;20043;-80
2021/09/17 00:30:15;;;;;;;38.70;21.45;;;14.80;99.90;;;;;;5067799;28;20056;-82
2021/09/17 00:32:48;;;;;;;35.00;19.85;;;14.80;99.90;;;;;;5051602;28;20056;-84
2021/09/17 00:35:22;;;;;;;28.65;17.75;;;14.80;99.90;;;;;;5068047;28;20220;-81
2021/09/17 00:37:52;;;;;;;35.03;19.27;;;14.70;99.90;;;;;;5069228;28;20065;-82
2021/09/17 00:40:32;;;;;;;27.02;16.25;;;14.70;99.90;;;;;;5050066;28;20131;-89
2021/09/17 00:43:02;;;;;;;30.17;17.13;;;13.30;99.90;;;;;;5070853;28;20044;-86
2021/09/17 00:45:38;;;;;;;30.17;16.63;;;14.60;99.90;;;;;;5047242;28;20049;-82
2021/09/17 00:48:07;;;;;;;30.20;16.42;;;14.60;99.90;;;;;;5047793;28;20060;-83
2021/09/17 00:50:35;;;;;;;31.58;15.88;;;14.60;99.90;;;;;;5051672;28;20486;-80
2021/09/17 00:53:17;;;;;;;32.17;17.58;;;14.60;99.90;;;;;;5039904;28;20465;-81
2021/09/17 00:55:50;;;;;;;30.75;16.48;;;14.70;99.90;;;;;;5045799;28;20067;-80
2021/09/17 00:58:19;;;;;;;26.85;14.63;;;14.60;99.90;;;;;;5027922;28;20056;-83
2021/09/17 01:00:49;;;;;;;24.63;14.50;;;14.60;99.90;;;;;;5046399;28;20064;-81
2021/09/17 01:03:18;;;;;;;27.40;15.85;;;14.60;99.90;;;;;;5047389;28;20060;-81
2021/09/17 01:05:53;;;;;;;30.88;16.63;;;14.50;99.90;;;;;;5048121;28;20046;-81
2021/09/17 01:08:22;;;;;;;26.88;15.50;;;14.50;99.90;;;;;;5040453;28;20041;-80
2021/09/17 01:10:50;;;;;;;28.20;15.70;;;14.50;99.90;;;;;;5044616;28;20057;-81
2021/09/17 01:13:21;;;;;;;28.70;16.75;;;14.50;99.90;;;;;;5043800;28;20037;-80
2021/09/17 01:15:51;;;;;;;30.13;15.88;;;14.50;99.90;;;;;;5028375;28;20297;-81
2021/09/17 01:18:20;;;;;;;33.55;18.60;;;14.50;99.90;;;;;;5019523;28;20046;-80
2021/09/17 01:20:49;;;;;;;28.38;16.10;;;14.40;99.90;;;;;;5044324;28;20059;-80
2021/09/17 01:23:20;;;;;;;29.15;17.20;;;14.40;99.90;;;;;;5027485;28;20044;-80
2021/09/17 01:25:49;;;;;;;26.75;14.95;;;14.40;99.90;;;;;;5010890;28;20056;-80
2021/09/17 01:28:29;;;;;;;28.05;15.40;;;14.40;99.90;;;;;;5045458;28;20050;-79
2021/09/17 01:30:58;;;;;;;25.15;13.50;;;14.40;99.90;;;;;;5027009;28;20049;-81
2021/09/17 01:33:30;;;;;;;29.27;15.82;;;14.30;99.90;;;;;;5043743;28;20047;-80
2021/09/17 01:36:03;;;;;;;29.42;14.75;;;14.30;99.90;;;;;;5028009;28;20045;-80
2021/09/17 01:38:33;;;;;;;26.85;14.05;;;14.30;99.90;;;;;;5018884;28;20052;-82
2021/09/17 01:41:03;;;;;;;30.25;15.95;;;14.30;99.90;;;;;;5046111;28;20045;-80
2021/09/17 01:43:31;;;;;;;29.10;16.08;;;14.30;99.90;;;;;;5015595;28;20419;-82
2021/09/17 01:46:00;;;;;;;27.85;13.68;;;14.20;99.90;;;;;;5080781;28;20044;-83
2021/09/17 01:48:31;;;;;;;26.40;15.18;;;14.20;99.90;;;;;;5037325;28;20049;-81
2021/09/17 01:50:59;;;;;;;27.17;14.03;;;14.20;99.90;;;;;;5055206;28;20045;-83
2021/09/17 01:53:30;;;;;;;28.83;13.38;;;14.20;99.90;;;;;;5054735;28;20040;-82
2021/09/17 01:55:58;;;;;;;23.38;11.45;;;14.20;99.90;;;;;;5087779;28;20048;-80
2021/09/17 01:58:28;;;;;;;25.23;11.02;;;14.20;99.90;;;;;;5088787;28;20040;-82
2021/09/17 02:00:57;;;;;;;28.23;12.77;;;14.20;99.90;;;;;;5087329;28;20052;-80
2021/09/17 02:03:27;;;;;;;24.98;12.05;;;14.20;99.90;;;;;;5073324;28;20051;-81
2021/09/17 02:05:55;;;;;;;26.77;12.60;;;14.20;99.90;;;;;;5067870;28;20055;-80
2021/09/17 02:08:24;;;;;;;21.30;11.07;;;14.10;99.90;;;;;;5064500;28;20045;-79
2021/09/17 02:10:52;;;;;;;22.95;11.35;;;14.10;99.90;;;;;;5085742;28;20053;-78
2021/09/17 02:13:22;;;;;;;21.42;10.75;;;14.10;99.90;;;;;;5085715;28;20040;-83
2021/09/17 02:15:57;;;;;;;22.77;11.52;;;14.10;99.90;;;;;;5083501;28;20065;-80
2021/09/17 02:18:26;;;;;;;25.98;11.90;;;14.20;99.90;;;;;;5067122;28;20044;-80
2021/09/17 02:20:54;;;;;;;34.40;11.48;;;14.10;99.90;;;;;;5084056;28;20044;-82
2021/09/17 02:23:23;;;;;;;20.65;9.38;;;14.10;99.90;;;;;;5047790;28;20041;-80
2021/09/17 02:25:51;;;;;;;22.35;8.93;;;14.10;99.90;;;;;;5075218;28;20067;-78
2021/09/17 02:28:20;;;;;;;21.10;9.75;;;14.10;99.90;;;;;;5068738;28;20050;-81
2021/09/17 02:30:50;;;;;;;21.33;10.57;;;14.10;99.90;;;;;;5088690;28;20395;-80
2021/09/17 02:33:18;;;;;;;19.85;9.15;;;14.10;99.90;;;;;;5088270;28;20045;-79
2021/09/17 02:35:49;;;;;;;18.45;9.90;;;14.10;99.90;;;;;;5087843;28;20045;-80
2021/09/17 02:38:22;;;;;;;20.95;10.35;;;14.10;99.90;;;;;;5070508;28;20045;-82
2021/09/17 02:40:52;;;;;;;21.27;9.32;;;14.10;99.90;;;;;;5070899;28;20045;-82
2021/09/17 02:43:20;;;;;;;22.38;10.70;;;14.10;99.90;;;;;;5088206;28;20045;-84
2021/09/17 02:45:48;;;;;;;23.27;8.82;;;14.10;99.90;;;;;;5052487;28;20551;-83
2021/09/17 02:48:20;;;;;;;20.65;10.75;;;14.20;99.90;;;;;;5042828;28;20669;-85
2021/09/17 02:50:48;;;;;;;22.23;10.00;;;14.10;99.90;;;;;;5091780;28;20062;-83
2021/09/17 02:53:16;;;;;;;22.10;10.60;;;14.10;99.90;;;;;;5073321;28;20045;-83
2021/09/17 02:55:44;;;;;;;23.80;9.95;;;14.10;99.90;;;;;;5091484;28;20064;-80
2021/09/17 02:58:14;;;;;;;19.73;9.93;;;14.10;99.90;;;;;;5073488;28;20355;-85
2021/09/17 03:00:42;;;;;;;29.25;11.32;;;14.10;99.90;;;;;;5064830;28;20051;-80
2021/09/17 03:03:10;;;;;;;30.30;12.93;;;14.10;99.90;;;;;;5039193;28;20333;-83
2021/09/17 03:05:40;;;;;;;27.40;13.77;;;14.10;99.90;;;;;;5057992;28;20408;-81
2021/09/17 03:08:09;;;;;;;26.90;12.57;;;13.60;99.90;;;;;;5071690;28;20048;-84
2021/09/17 03:10:37;;;;;;;22.20;11.50;;;14.10;99.90;;;;;;5085236;28;20052;-81
2021/09/17 03:13:05;;;;;;;20.50;10.00;;;14.10;99.90;;;;;;5089573;28;20403;-79
2021/09/17 03:15:33;;;;;;;24.42;11.75;;;14.10;99.90;;;;;;5034870;28;20045;-81
2021/09/17 03:18:03;;;;;;;23.85;10.60;;;14.20;99.90;;;;;;5062725;28;20057;-85
2021/09/17 03:20:32;;;;;;;25.20;10.82;;;14.10;99.90;;;;;;5054283;28;20056;-80
2021/09/17 03:23:00;;;;;;;22.77;11.27;;;14.10;99.90;;;;;;5089296;28;20040;-80
2021/09/17 03:25:30;;;;;;;23.20;11.25;;;14.20;99.90;;;;;;5056769;28;20045;-79
2021/09/17 03:27:58;;;;;;;24.08;11.38;;;14.10;99.90;;;;;;5073031;28;20054;-84
2021/09/17 03:30:26;;;;;;;22.08;11.25;;;14.10;99.90;;;;;;5072283;28;20040;-81
2021/09/17 03:32:55;;;;;;;24.98;11.85;;;14.10;99.90;;;;;;5090862;28;20052;-81
2021/09/17 03:35:23;;;;;;;30.35;12.77;;;14.10;99.90;;;;;;5071376;28;20037;-79
2021/09/17 03:37:52;;;;;;;26.65;12.55;;;14.10;99.90;;;;;;5069676;28;20048;-82
2021/09/17 03:40:23;;;;;;;21.30;10.60;;;14.10;99.90;;;;;;5070500;28;20057;-82
2021/09/17 03:42:51;;;;;;;26.52;12.05;;;14.10;99.90;;;;;;5036876;28;20272;-84
2021/09/17 03:45:19;;;;;;;28.95;12.18;;;14.10;99.90;;;;;;5048853;28;20046;-79
2021/09/17 03:47:48;;;;;;;27.85;10.93;;;14.10;99.90;;;;;;5047093;28;20049;-79
2021/09/17 03:50:20;;;;;;;25.58;11.45;;;14.00;99.90;;;;;;5048397;28;20041;-80
2021/09/17 03:52:48;;;;;;;23.02;11.38;;;14.00;99.90;;;;;;5031162;28;20049;-80
2021/09/17 03:55:16;;;;;;;28.30;11.68;;;14.10;99.90;;;;;;5046521;28;20048;-80
2021/09/17 03:57:45;;;;;;;26.60;12.70;;;14.00;99.90;;;;;;5041395;28;20056;-87
2021/09/17 04:00:14;;;;;;;26.27;10.65;;;14.00;99.90;;;;;;5046637;28;20049;-83
2021/09/17 04:02:42;;;;;;;23.10;11.55;;;13.90;99.90;;;;;;5046156;28;20063;-80
2021/09/17 04:05:10;;;;;;;22.50;11.75;;;13.90;99.90;;;;;;5030479;28;20046;-81
2021/09/17 04:07:43;;;;;;;26.50;11.20;;;13.90;99.90;;;;;;5046942;28;20053;-80
2021/09/17 04:10:17;;;;;;;23.92;13.45;;;13.80;99.90;;;;;;5049123;28;20052;-79
2021/09/17 04:12:46;;;;;;;23.83;11.75;;;13.90;99.90;;;;;;5047142;28;20045;-78
2021/09/17 04:15:14;;;;;;;22.55;11.40;;;13.80;99.90;;;;;;5047485;28;20046;-80
2021/09/17 04:17:43;;;;;;;28.60;13.57;;;13.80;99.90;;;;;;5043190;28;20042;-80
2021/09/17 04:20:12;;;;;;;25.20;11.30;;;13.80;99.90;;;;;;5047991;28;20041;-82
2021/09/17 04:22:43;;;;;;;23.83;10.70;;;13.20;99.90;;;;;;5015918;28;20057;-80
2021/09/17 04:25:12;;;;;;;26.73;12.68;;;12.40;99.90;;;;;;5030533;28;20037;-79
2021/09/17 04:27:46;;;;;;;25.15;12.00;;;13.80;99.90;;;;;;5019923;28;20050;-81
2021/09/17 04:30:15;;;;;;;26.42;12.88;;;13.80;99.90;;;;;;5010998;28;20062;-80
2021/09/17 04:32:45;;;;;;;28.45;11.48;;;13.80;99.90;;;;;;5030243;28;20053;-79
2021/09/17 04:35:15;;;;;;;27.83;12.55;;;13.80;99.90;;;;;;5046462;28;20052;-80
2021/09/17 04:37:45;;;;;;;21.88;10.57;;;13.80;99.90;;;;;;5045409;28;20029;-80
2021/09/17 04:40:16;;;;;;;26.80;10.45;;;13.70;99.90;;;;;;5046520;28;20051;-80
2021/09/17 04:42:46;;;;;;;25.30;11.50;;;13.70;99.90;;;;;;5046857;28;20063;-87
2021/09/17 04:45:15;;;;;;;23.15;11.95;;;13.70;99.90;;;;;;5081660;28;20063;-82
2021/09/17 04:47:44;;;;;;;22.70;11.82;;;13.70;99.90;;;;;;5087244;28;20040;-83
2021/09/17 04:50:14;;;;;;;23.15;11.68;;;13.80;99.90;;;;;;5067532;28;20056;-82
2021/09/17 04:52:47;;;;;;;35.80;11.07;;;13.70;99.90;;;;;;5086401;28;20040;-80
2021/09/17 04:55:17;;;;;;;26.35;12.13;;;13.70;99.90;;;;;;5085291;28;20044;-80
2021/09/17 04:57:45;;;;;;;39.83;12.82;;;13.70;99.90;;;;;;5068145;28;20052;-79
2021/09/17 05:00:13;;;;;;;24.00;11.25;;;13.70;99.90;;;;;;5085843;28;20042;-83
2021/09/17 05:02:42;;;;;;;27.30;12.63;;;13.70;99.90;;;;;;5050132;28;20056;-83
2021/09/17 05:05:12;;;;;;;25.50;13.25;;;13.60;99.90;;;;;;5064862;28;20052;-79
2021/09/17 05:07:40;;;;;;;24.50;11.68;;;13.60;99.90;;;;;;5084334;28;20052;-81
2021/09/17 05:10:21;;;;;;;34.17;13.23;;;13.60;99.90;;;;;;5068390;28;20036;-81
2021/09/17 05:12:51;;;;;;;28.35;11.93;;;13.50;99.90;;;;;;5052554;28;20044;-80
2021/09/17 05:15:22;;;;;;;23.20;10.93;;;13.50;99.90;;;;;;5042383;28;20048;-81
2021/09/17 05:17:50;;;;;;;23.77;10.48;;;13.50;99.90;;;;;;5052474;28;20051;-81
2021/09/17 05:20:18;;;;;;;24.95;10.48;;;13.50;99.90;;;;;;5069845;28;20045;-81
2021/09/17 05:22:47;;;;;;;26.20;11.73;;;13.40;99.90;;;;;;5068802;28;20058;-80
2021/09/17 05:25:15;;;;;;;22.73;9.70;;;13.40;99.90;;;;;;5068130;28;20029;-80
2021/09/17 05:27:47;;;;;;;25.08;10.95;;;13.40;99.90;;;;;;5045855;28;20059;-79
2021/09/17 05:30:16;;;;;;;26.40;11.17;;;13.40;99.90;;;;;;5052065;28;20059;-81
2021/09/17 05:32:44;;;;;;;24.77;10.52;;;13.20;99.90;;;;;;5098417;28;20047;-79
2021/09/17 05:35:13;;;;;;;25.10;10.35;;;13.30;99.90;;;;;;5050810;28;20083;-78
2021/09/17 05:37:42;;;;;;;21.60;10.93;;;13.30;99.90;;;;;;5084648;28;20052;-79
2021/09/17 05:40:14;;;;;;;29.08;10.57;;;13.30;99.90;;;;;;5068307;28;20040;-83
2021/09/17 05:42:44;;;;;;;24.92;10.95;;;13.30;99.90;;;;;;5051256;28;20063;-81
2021/09/17 05:45:16;;;;;;;25.05;12.18;;;13.20;99.90;;;;;;5042011;28;20385;-80
2021/09/17 05:47:45;;;;;;;24.30;10.38;;;13.20;99.90;;;;;;5034241;28;20052;-80
2021/09/17 05:50:14;;;;;;;24.63;10.20;;;13.20;99.90;;;;;;5044450;28;20057;-78
2021/09/17 05:52:42;;;;;;;20.98;9.57;;;13.20;99.90;;;;;;5043315;28;20049;-81
2021/09/17 05:55:10;;;;;;;22.13;9.77;;;13.20;99.90;;;;;;5043487;28;20045;-80
2021/09/17 05:57:40;;;;;;;21.88;9.48;;;13.20;99.90;;;;;;5041984;28;20053;-79
2021/09/17 06:00:17;;;;;;;17.90;9.82;;;13.20;99.90;;;;;;5044116;28;20045;-80
2021/09/17 06:02:45;;;;;;;22.70;10.55;;;13.20;99.90;;;;;;5034213;28;20054;-80
2021/09/17 06:05:14;;;;;;;22.90;9.80;;;13.20;99.90;;;;;;5039415;28;20037;-80
2021/09/17 06:07:46;;;;;;;21.52;9.63;;;13.20;99.90;;;;;;5041657;28;20052;-81
2021/09/17 06:10:15;;;;;;;25.20;10.07;;;13.10;99.90;;;;;;5048141;28;20041;-85
2021/09/17 06:12:45;;;;;;;29.33;11.20;;;13.20;99.90;;;;;;5040162;28;20438;-81
2021/09/17 06:15:16;;;;;;;24.20;12.20;;;13.20;99.90;;;;;;5024621;28;20049;-80
2021/09/17 06:17:46;;;;;;;21.92;10.20;;;12.50;99.90;;;;;;5024251;28;20060;-81
2021/09/17 06:20:18;;;;;;;21.10;10.23;;;13.20;99.90;;;;;;5036794;28;20049;-84
2021/09/17 06:22:47;;;;;;;27.92;10.32;;;13.30;99.90;;;;;;5042289;28;20056;-81
2021/09/17 06:25:15;;;;;;;19.95;8.80;;;13.30;99.90;;;;;;5042052;28;20055;-81
2021/09/17 06:27:45;;;;;;;22.17;9.38;;;13.40;99.90;;;;;;5037705;28;20059;-81
2021/09/17 06:30:15;;;;;;;24.10;8.33;;;13.40;99.90;;;;;;5023579;28;20064;-86
2021/09/17 06:32:47;;;;;;;27.35;12.48;;;13.40;99.90;;;;;;5041160;28;20045;-79
2021/09/17 06:35:17;;;;;;;26.95;10.40;;;13.50;99.90;;;;;;5040796;28;20057;-78
2021/09/17 06:37:51;;;;;;;20.73;11.05;;;13.50;99.90;;;;;;5037633;28;20053;-79
2021/09/17 06:40:23;;;;;;;19.05;8.27;;;13.50;99.90;;;;;;5033091;28;20050;-79
2021/09/17 06:42:54;;;;;;;20.10;10.52;;;13.60;99.90;;;;;;5042084;28;20053;-79
2021/09/17 06:45:22;;;;;;;18.77;8.63;;;13.60;99.90;;;;;;5040542;28;20049;-80
2021/09/17 06:47:55;;;;;;;26.85;14.88;;;13.70;99.90;;;;;;5060123;28;20063;-82
2021/09/17 06:50:26;;;;;;;24.80;11.25;;;13.70;99.90;;;;;;5040852;28;20044;-83
2021/09/17 06:52:56;;;;;;;23.08;12.57;;;13.80;99.90;;;;;;5060228;28;20045;-82
2021/09/17 06:55:28;;;;;;;23.33;10.33;;;13.90;99.90;;;;;;5038599;28;20039;-83
2021/09/17 06:57:59;;;;;;;22.60;9.90;;;14.00;99.90;;;;;;5042062;28;20060;-83
2021/09/17 07:00:30;;;;;;;32.97;11.70;;;14.00;99.90;;;;;;5052535;28;20052;-83
2021/09/17 07:02:59;;;;;;;26.67;12.25;;;14.10;99.90;;;;;;5063828;28;20048;-85
2021/09/17 07:05:31;;;;;;;24.83;11.40;;;14.30;99.90;;;;;;5054963;28;20036;-82
2021/09/17 07:08:20;;;;;;;23.02;12.05;;;14.30;99.90;;;;;;5017025;28;20046;-83
2021/09/17 07:10:59;;;;;;;30.30;12.35;;;13.70;99.90;;;;;;5047969;28;20049;-83
2021/09/17 07:13:30;;;;;;;23.33;12.15;;;14.50;99.90;;;;;;5053267;28;20056;-83
2021/09/17 07:16:23;;;;;;;25.77;11.68;;;14.70;99.90;;;;;;5048349;28;20053;-83
2021/09/17 07:18:59;;;;;;;23.83;12.15;;;14.90;99.90;;;;;;5066475;28;20426;-85
2021/09/17 07:21:40;;;;;;;26.15;12.15;;;14.80;99.90;;;;;;5063218;28;20652;-86
2021/09/17 07:24:28;;;;;;;20.88;9.60;;;14.90;99.90;;;;;;5063771;28;20587;-84
2021/09/17 07:26:58;;;;;;;23.15;11.52;;;14.80;99.90;;;;;;5063056;28;20045;-83
2021/09/17 07:29:45;;;;;;;;;;;;;;;;;;;;;
2021/09/17 07:32:19;;;;;;;20.15;8.60;;;14.40;99.90;;;;;;5057029;28;20505;-84
2021/09/17 07:34:54;;;;;;;18.05;9.35;;;15.30;99.90;;;;;;5027842;28;20072;-83
2021/09/17 07:37:23;;;;;;;17.00;8.45;;;15.40;99.90;;;;;;5064945;28;20048;-83
2021/09/17 07:39:55;;;;;;;17.17;8.30;;;15.50;99.90;;;;;;5047899;28;20323;-83
2021/09/17 07:42:36;;;;;;;14.77;7.50;;;15.60;99.90;;;;;;5049526;28;20053;-84
2021/09/17 07:45:47;;;;;;;16.52;8.05;;;15.70;99.90;;;;;;5058265;28;20048;-85
2021/09/17 07:48:23;;;;;;;13.57;6.40;;;15.70;99.90;;;;;;5069914;28;20071;-85
2021/09/17 07:51:00;;;;;;;15.75;8.07;;;15.90;99.90;;;;;;5044007;28;20045;-85
2021/09/17 07:53:47;;;;;;;13.10;5.97;;;15.90;99.90;;;;;;5060974;28;20059;-84
2021/09/17 07:56:28;;;;;;;13.07;5.20;;;16.00;99.90;;;;;;5034269;28;20059;-86
2021/09/17 07:59:12;;;;;;;10.65;5.13;;;15.20;99.90;;;;;;5043095;28;20049;-83
2021/09/17 08:01:49;;;;;;;15.13;4.90;;;16.20;99.90;;;;;;5050246;28;20048;-83
2021/09/17 08:04:40;;;;;;;14.32;6.70;;;16.20;99.90;;;;;;5048185;28;20051;-86
2021/09/17 08:07:58;;;;;;;14.52;4.57;;;16.40;99.90;;;;;;5009873;28;20046;-83
2021/09/17 08:10:31;;;;;;;9.43;3.63;;;16.60;99.90;;;;;;5022056;28;20446;-85
2021/09/17 08:13:19;;;;;;;14.73;4.90;;;16.70;99.90;;;;;;5023890;28;20049;-84
2021/09/17 08:17:02;;;;;;;;;;;;;;;;;;;;;
2021/09/17 08:20:17;;;;;;;;;;;;;;;;;;;;;
2021/09/17 08:22:57;;;;;;;5.82;2.53;;;17.00;99.90;;;;;;4972552;28;20047;-83
2021/09/17 08:25:38;;;;;;;9.10;2.90;;;17.10;99.90;;;;;;4960200;28;20058;-82
2021/09/17 08:28:10;;;;;;;9.77;2.60;;;17.10;99.90;;;;;;4947649;28;20533;-84
2021/09/17 08:30:41;;;;;;;5.82;3.00;;;17.10;99.90;;;;;;4978974;28;20054;-84
2021/09/17 08:34:05;;;;;;;9.73;1.95;;;17.10;99.90;;;;;;5046099;28;20041;-85
2021/09/17 08:37:27;;;;;;;9.52;2.55;;;17.20;99.90;;;;;;5051117;28;20055;-88
2021/09/17 08:40:28;;;;;;;11.32;1.95;;;16.90;99.90;;;;;;5048771;28;20053;-86
2021/09/17 08:43:11;;;;;;;9.05;2.17;;;17.30;99.90;;;;;;5060942;28;20044;-84
2021/09/17 08:45:51;;;;;;;2.90;1.40;;;17.30;99.90;;;;;;5057879;28;20037;-87
2021/09/17 08:48:56;;;;;;;6.13;1.98;;;17.40;99.90;;;;;;5054927;28;20041;-88
2021/09/17 08:51:40;;;;;;;5.70;1.55;;;17.40;99.90;;;;;;5058656;28;21452;-86
2021/09/17 08:54:19;;;;;;;5.55;1.85;;;17.50;99.90;;;;;;5053214;28;20045;-87
2021/09/17 08:56:59;;;;;;;7.03;1.20;;;17.10;99.90;;;;;;5027418;28;20051;-86
2021/09/17 08:59:36;;;;;;;4.63;1.50;;;17.60;99.90;;;;;;5072792;28;20049;-85
2021/09/17 09:02:45;;;;;;;5.32;1.40;;;17.70;99.90;;;;;;5050507;28;20065;-83
2021/09/17 09:06:15;;;;;;;7.82;2.80;;;17.80;99.90;;;;;;4998005;28;20034;-84
2021/09/17 09:09:17;;;;;;;2.42;1.40;;;17.90;99.90;;;;;;4984487;28;20060;-88
2021/09/17 09:12:00;;;;;;;7.65;1.20;;;19.10;99.90;;;;;;4978789;28;20482;-86
2021/09/17 09:15:39;;;;;;;;;;;;;;;;;;;;;
2021/09/17 09:18:22;;;;;;;5.28;1.52;;;18.30;99.90;;;;;;5005699;28;20045;-84
2021/09/17 09:21:24;;;;;;;5.13;1.60;;;18.40;99.90;;;;;;5007038;28;20054;-85
2021/09/17 09:25:21;;;;;;;;;;;;;;;;;;;;;
2021/09/17 09:28:19;;;;;;;5.18;1.38;;;18.70;99.90;;;;;;4987221;28;20046;-87
2021/09/17 09:31:24;;;;;;;4.72;1.40;;;18.80;99.90;;;;;;5009076;28;20082;-85
2021/09/17 09:34:05;;;;;;;3.15;1.20;;;19.10;99.90;;;;;;5024510;28;20081;-83
2021/09/17 09:36:47;;;;;;;4.15;1.00;;;19.20;99.90;;;;;;5020029;28;20064;-86
2021/09/17 09:39:18;;;;;;;3.30;0.73;;;19.20;99.90;;;;;;5010361;28;20049;-84
2021/09/17 09:41:53;;;;;;;3.13;1.40;;;19.30;99.90;;;;;;5036772;28;20045;-87
2021/09/17 09:44:25;;;;;;;2.38;0.93;;;19.40;99.90;;;;;;5050266;28;20190;-87
2021/09/17 09:47:36;;;;;;;;;;;;;;;;;;;;;
2021/09/17 09:50:29;;;;;;;1.63;0.85;;;19.50;99.90;;;;;;5073806;28;20033;-88
2021/09/17 09:53:16;;;;;;;0.95;0.90;;;19.60;99.90;;;;;;5058168;28;20045;-87
2021/09/17 09:55:52;;;;;;;1.88;0.70;;;19.60;99.90;;;;;;5051646;28;20046;-86
2021/09/17 09:58:22;;;;;;;4.57;0.82;;;19.70;99.90;;;;;;5057381;28;20037;-86
2021/09/17 10:01:01;;;;;;;10.07;2.20;;;19.70;99.90;;;;;;5048176;28;20498;-86
2021/09/17 10:03:59;;;;;;;5.22;0.90;;;19.80;99.90;;;;;;5063778;28;20394;-86
2021/09/17 10:07:07;;;;;;;5.47;0.93;;;19.90;99.90;;;;;;5062764;28;20044;-89
2021/09/17 10:09:38;;;;;;;1.65;0.93;;;20.00;99.90;;;;;;5062648;28;20059;-89
2021/09/17 10:12:16;;;;;;;9.65;1.58;;;20.10;99.90;;;;;;5047758;28;20047;-84
2021/09/17 10:14:49;;;;;;;4.03;1.00;;;20.20;99.90;;;;;;5057282;28;20075;-87
2021/09/17 10:17:36;;;;;;;3.55;0.95;;;20.30;99.90;;;;;;5050607;28;20041;-91
2021/09/17 10:20:10;;;;;;;2.55;1.15;;;20.30;99.90;;;;;;5041756;28;20048;-87
2021/09/17 10:22:44;;;;;;;4.63;1.00;;;20.40;99.90;;;;;;5063959;28;20041;-90
2021/09/17 10:25:25;;;;;;;2.40;0.73;;;20.50;99.90;;;;;;5060081;28;20053;-86
2021/09/17 10:28:22;;;;;;;2.28;0.75;;;20.60;99.90;;;;;;5054775;28;20060;-84
2021/09/17 10:31:16;;;;;;;8.27;1.20;;;20.70;99.90;;;;;;5051016;28;20042;-85
2021/09/17 10:35:17;;;;;;;12.57;3.85;;;20.50;99.90;;;;;;5047658;28;20041;-87
2021/09/17 10:38:16;;;;;;;10.70;2.42;;;21.10;99.90;;;;;;4972168;28;20050;-89
2021/09/17 10:40:51;;;;;;;4.75;1.60;;;21.40;99.90;;;;;;5017032;28;20053;-89
2021/09/17 10:43:24;;;;;;;5.07;1.45;;;21.60;99.90;;;;;;4998823;28;20038;-89
2021/09/17 10:46:01;;;;;;;2.80;1.33;;;21.80;99.90;;;;;;4968386;28;20050;-89
2021/09/17 10:48:43;;;;;;;12.88;1.98;;;22.00;99.40;;;;;;4989694;28;20050;-91
2021/09/17 10:51:28;;;;;;;6.13;1.70;;;22.10;99.30;;;;;;4977094;28;20069;-88
2021/09/17 10:54:01;;;;;;;7.13;2.20;;;22.20;98.50;;;;;;5002569;28;20042;-89
2021/09/17 10:56:47;;;;;;;11.27;3.45;;;22.10;98.70;;;;;;4992112;28;20390;-88
2021/09/17 10:59:27;;;;;;;4.88;1.80;;;22.20;98.40;;;;;;4989657;28;20417;-90
2021/09/17 11:02:01;;;;;;;1.83;1.08;;;22.20;98.60;;;;;;4979003;28;20474;-87
2021/09/17 11:05:13;;;;;;;4.65;1.83;;;22.10;98.60;;;;;;4996464;28;20046;-88
2021/09/17 11:07:48;;;;;;;6.63;1.48;;;22.20;98.30;;;;;;4985722;28;20058;-87
2021/09/17 11:10:24;;;;;;;3.58;1.13;;;22.30;98.70;;;;;;5022452;28;20041;-88
2021/09/17 11:13:05;;;;;;;8.00;1.17;;;22.30;98.20;;;;;;5031665;28;20042;-89
2021/09/17 11:15:33;;;;;;;2.25;0.85;;;22.40;97.30;;;;;;4982250;28;20477;-87
2021/09/17 11:18:08;;;;;;;3.95;1.00;;;22.40;97.80;;;;;;5015025;28;20482;-90
2021/09/17 11:20:36;;;;;;;1.27;0.90;;;22.40;97.70;;;;;;4967146;28;20042;-89
2021/09/17 11:23:08;;;;;;;2.13;0.95;;;22.30;97.60;;;;;;5015974;28;20045;-88
2021/09/17 11:25:44;;;;;;;1.08;0.70;;;22.40;97.20;;;;;;5014727;28;20045;-89
2021/09/17 11:28:31;;;;;;;4.82;1.00;;;22.50;96.40;;;;;;4999565;28;20046;-87
2021/09/17 11:31:10;;;;;;;2.88;0.98;;;22.50;96.60;;;;;;5017435;28;20576;-89
2021/09/17 11:33:38;;;;;;;2.78;0.85;;;22.60;96.80;;;;;;5003183;28;20061;-87
2021/09/17 11:36:09;;;;;;;2.67;1.00;;;22.60;96.80;;;;;;5046335;28;20064;-88
2021/09/17 11:38:37;;;;;;;3.58;1.17;;;22.70;96.90;;;;;;4999398;28;20038;-89
2021/09/17 11:41:08;;;;;;;2.47;1.05;;;22.80;96.80;;;;;;5007839;28;20433;-87
2021/09/17 11:43:44;;;;;;;5.20;1.27;;;22.80;96.50;;;;;;4986269;28;20057;-89
2021/09/17 11:46:12;;;;;;;3.65;2.58;;;22.90;96.30;;;;;;5004526;28;20037;-91
2021/09/17 11:48:41;;;;;;;2.83;1.00;;;22.90;96.30;;;;;;5005883;28;20049;-86
2021/09/17 11:51:12;;;;;;;6.35;1.58;;;23.00;96.10;;;;;;5013970;28;20050;-88
2021/09/17 11:53:45;;;;;;;4.38;1.60;;;23.00;95.90;;;;;;5020320;28;20061;-89
2021/09/17 11:56:16;;;;;;;4.72;1.25;;;23.00;95.60;;;;;;5016230;28;20109;-88
2021/09/17 11:58:48;;;;;;;6.35;1.10;;;23.00;96.00;;;;;;5019373;28;20049;-88
2021/09/17 12:01:23;;;;;;;6.60;1.77;;;23.00;95.80;;;;;;5012445;28;20046;-87
2021/09/17 12:03:54;;;;;;;4.18;2.05;;;23.10;95.60;;;;;;4999136;28;20064;-88
2021/09/17 12:06:23;;;;;;;4.30;1.70;;;22.60;95.70;;;;;;5017145;28;20049;-89
2021/09/17 12:08:57;;;;;;;5.93;2.00;;;23.30;95.90;;;;;;5014440;28;20061;-86
2021/09/17 12:11:25;;;;;;;7.60;2.15;;;23.30;95.80;;;;;;5013413;28;20046;-87
2021/09/17 12:13:54;;;;;;;4.70;1.60;;;23.40;95.90;;;;;;5014233;28;20047;-88
2021/09/17 12:16:25;;;;;;;7.78;1.80;;;23.50;96.00;;;;;;4999043;28;20041;-88
2021/09/17 12:19:04;;;;;;;8.60;1.90;;;23.60;95.90;;;;;;5017305;28;20057;-87
2021/09/17 12:21:39;;;;;;;2.58;1.48;;;23.70;95.10;;;;;;5025806;28;20049;-86
2021/09/17 12:24:22;;;;;;;3.35;1.23;;;23.40;95.10;;;;;;5013519;28;20053;-87
2021/09/17 12:26:59;;;;;;;6.43;1.40;;;23.70;95.30;;;;;;5019102;28;20037;-86
2021/09/17 12:29:29;;;;;;;5.60;2.17;;;23.80;94.70;;;;;;5032083;28;20041;-87
2021/09/17 12:32:49;;;;;;;3.80;1.70;;;23.80;94.80;;;;;;5002527;28;20053;-88
2021/09/17 12:35:30;;;;;;;3.53;1.20;;;23.60;94.50;;;;;;4973460;28;20055;-87
2021/09/17 12:37:58;;;;;;;;;;;23.80;95.20;;;;;;4967184;28;20065;-88
2021/09/17 12:40:29;;;;;;;3.28;1.13;;;23.80;94.80;;;;;;4987479;28;19928;-88
2021/09/17 12:43:30;;;;;;;1.58;1.20;;;23.80;95.40;;;;;;4998588;28;20035;-88
2021/09/17 12:46:09;;;;;;;4.55;1.58;;;23.80;94.80;;;;;;4998910;28;20050;-88
2021/09/17 12:48:45;;;;;;;1.95;1.20;;;23.80;94.50;;;;;;4987773;28;20054;-89
2021/09/17 12:51:28;;;;;;;5.35;1.70;;;23.90;94.30;;;;;;4998211;28;20046;-88
2021/09/17 12:54:00;;;;;;;5.60;1.67;;;23.80;94.60;;;;;;4990974;28;20042;-89
2021/09/17 12:56:28;;;;;;;8.75;1.98;;;23.80;94.60;;;;;;4987661;28;20027;-87
2021/09/17 13:08:31;;;;;;;2.67;1.20;;;23.80;94.00;;;;;;5019173;28;20041;-85
2021/09/17 13:12:33;;;;;;;4.75;1.33;;;23.70;93.80;;;;;;5020677;28;20056;-84
2021/09/17 13:15:05;;;;;;;;;;;23.70;92.90;;;;;;4918879;29;20047;-84
2021/09/17 13:17:50;;;;;;;3.90;1.08;;;23.60;92.90;;;;;;4926197;29;20380;-86
2021/09/17 13:20:20;;;;;;;3.08;1.42;;;23.60;93.60;;;;;;4986682;28;20044;-89
2021/09/17 13:22:49;;;;;;;2.30;1.30;;;23.70;93.40;;;;;;4999343;28;20033;-87
2021/09/17 13:25:39;;;;;;;4.88;1.45;;;23.70;93.30;;;;;;5016562;28;20029;-87
2021/09/17 13:28:16;;;;;;;4.10;1.80;;;23.80;93.30;;;;;;5012868;28;20054;-90
2021/09/17 13:30:50;;;;;;;4.05;1.85;;;23.40;93.30;;;;;;4996399;28;20050;-91
2021/09/17 13:33:25;;;;;;;4.40;1.63;;;24.10;93.10;;;;;;5010372;28;20046;-89
2021/09/17 13:35:53;;;;;;;4.97;1.67;;;24.10;93.10;;;;;;4993967;28;20050;-87
2021/09/17 13:38:22;;;;;;;5.05;2.53;;;24.10;93.40;;;;;;4968223;28;20070;-86